Capitol Logistics 3264




KPBI
Palm Beach International Airport
West Palm Beach, Florida
KMIA
Miami International Airport
Miami, Florida

Activity Log

Date Flight Route Aircraft Duration
03/22/2021 CPX3264 BEKAH CAYSL WAKED MYNRD HITAG BASHO SF34 0h 28m
09/14/2019 CPX664 BUFIT2 HILEY HILEY7 SF34 0h 25m
04/04/2019 CPX664 VFR SF34 0h 25m
03/11/2019 CPX664 BUFIT2 HILEY HILEY7 SF34 0h 32m

Route Details

Aircraft Information
Primary: Saab 340AF
Backup: Not Available
Route Data
Distance: 120nm
Duration: 0h 55m
Recm'd Route: BUFIT2 HILEY HILEY7
Origin Wx: KPBI 180253Z 24007KT 10SM CLR 26/19 A2990 RMK AO2 SLP126 T02560189 51017 $
Dest. Wx: KMIA 180253Z 27005KT 10SM CLR 25/19 A2992 RMK AO2 SLP131 T02500194 51013 $
Notes: